createdAt,value
2019-03-12T00:03:10.275Z,9.6
2019-03-12T00:13:09.484Z,9.4
2019-03-12T00:23:08.699Z,9.3
2019-03-12T00:33:07.911Z,9.1
2019-03-12T00:43:07.125Z,9
2019-03-12T00:53:06.337Z,9
2019-03-12T01:03:05.555Z,9
2019-03-12T01:13:04.776Z,9.2
2019-03-12T01:23:03.977Z,9.3
2019-03-12T01:33:03.190Z,9.3
2019-03-12T01:43:02.406Z,9.1
2019-03-12T01:53:01.615Z,9.1
2019-03-12T02:03:00.828Z,9
2019-03-12T02:13:00.041Z,9
2019-03-12T02:22:59.255Z,8.9
2019-03-12T02:32:58.470Z,8.9
2019-03-12T02:42:57.678Z,8.8
2019-03-12T02:52:56.901Z,8.5
2019-03-12T03:02:56.104Z,8.4
2019-03-12T03:12:55.316Z,8.3
2019-03-12T03:22:54.528Z,8.3
2019-03-12T03:32:53.768Z,8.3
2019-03-12T03:42:52.964Z,8.2
2019-03-12T03:52:52.232Z,8.3
2019-03-12T04:02:51.379Z,8.3
2019-03-12T04:12:50.595Z,8.3
2019-03-12T04:22:49.804Z,8.3
2019-03-12T04:32:49.014Z,8.4
2019-03-12T04:42:48.231Z,6.4
2019-03-12T04:52:47.445Z,5.6
2019-03-12T05:02:46.659Z,5.2
2019-03-12T05:12:45.881Z,4.8
2019-03-12T05:22:45.088Z,4.8
2019-03-12T05:32:44.309Z,4.6
2019-03-12T05:42:43.522Z,4.5
2019-03-12T05:52:42.736Z,4.4
2019-03-12T06:02:41.950Z,4.4
2019-03-12T06:12:41.165Z,4.4
2019-03-12T06:22:40.382Z,4.4
2019-03-12T06:32:39.591Z,4.5
2019-03-12T06:42:38.808Z,4.3
2019-03-12T06:52:38.022Z,4.3
2019-03-12T07:02:37.238Z,4.3
2019-03-12T07:12:36.852Z,4.3
2019-03-12T07:22:35.663Z,4.6
2019-03-12T07:32:34.877Z,4.8
2019-03-12T07:42:34.090Z,4.8
2019-03-12T07:52:33.303Z,4.8
2019-03-12T08:02:32.518Z,4.9
2019-03-12T08:12:34.163Z,4.8
2019-03-12T08:22:30.992Z,4.9
2019-03-12T08:32:30.157Z,5
2019-03-12T08:42:29.371Z,4.9
2019-03-12T08:52:28.591Z,4.9
2019-03-12T09:02:27.801Z,4.9
2019-03-12T09:12:27.012Z,5.4
2019-03-12T09:22:26.226Z,5.4
2019-03-12T09:32:25.437Z,5.2
2019-03-12T09:42:24.651Z,5.2
2019-03-12T09:52:23.866Z,5.4
2019-03-12T10:02:23.078Z,5.9
2019-03-12T10:12:22.292Z,6.1
2019-03-12T10:22:21.505Z,6.2
2019-03-12T10:32:20.721Z,6.2
2019-03-12T10:42:19.931Z,6.4
2019-03-12T10:52:19.143Z,6.5
2019-03-12T11:02:18.358Z,6.5
2019-03-12T11:12:17.616Z,6.4
2019-03-12T11:22:16.785Z,6.4
2019-03-12T11:32:15.994Z,6.4
2019-03-12T11:42:15.207Z,6.8
2019-03-12T11:52:14.418Z,7
2019-03-12T12:02:13.630Z,6.9
2019-03-12T12:12:12.843Z,6.9
2019-03-12T12:22:12.055Z,6.4
2019-03-12T12:32:11.267Z,6.4
2019-03-12T12:42:10.478Z,6.5
2019-03-12T12:52:09.689Z,6.5
2019-03-12T13:02:08.954Z,6.5
2019-03-12T13:12:08.114Z,6.6
2019-03-12T13:22:07.327Z,6.4
2019-03-12T13:32:13.212Z,6.2
2019-03-12T13:42:05.766Z,6.1
2019-03-12T13:52:04.983Z,5.3
2019-03-12T14:02:04.173Z,4.6
2019-03-12T14:12:03.388Z,4.1
2019-03-12T14:22:02.597Z,3.4
2019-03-12T14:32:01.824Z,3.6
2019-03-12T14:42:01.023Z,3.8
2019-03-12T14:52:00.232Z,3.8
2019-03-12T15:01:59.446Z,4
2019-03-12T15:11:58.657Z,4.1
2019-03-12T15:21:57.869Z,4.1
2019-03-12T15:32:03.817Z,4.3
2019-03-12T15:41:56.459Z,4.3
2019-03-12T15:51:55.506Z,4.3
2019-03-12T16:01:54.717Z,4.3
2019-03-12T16:11:53.930Z,4
2019-03-12T16:21:53.141Z,3.7
2019-03-12T16:31:52.357Z,4.8
2019-03-12T16:41:51.569Z,5.7
2019-03-12T16:51:50.781Z,6.3
2019-03-12T17:01:49.994Z,6.7
2019-03-12T17:11:49.206Z,6.9
2019-03-12T17:21:48.418Z,6.9
2019-03-12T17:31:47.631Z,7
2019-03-12T17:41:46.844Z,7.1
2019-03-12T17:51:46.056Z,7.3
2019-03-12T18:01:45.467Z,7.2
2019-03-12T18:11:44.484Z,7.2
2019-03-12T18:21:43.698Z,7.1
2019-03-12T18:31:42.912Z,7.1
2019-03-12T18:41:42.147Z,7.1
2019-03-12T18:51:41.360Z,7.2
2019-03-12T19:01:40.548Z,7.1
2019-03-12T19:11:39.782Z,7
2019-03-12T19:21:38.979Z,7
2019-03-12T19:31:38.188Z,7.2
2019-03-12T19:41:37.423Z,7.1
2019-03-12T19:51:36.614Z,7.2
2019-03-12T20:01:35.829Z,7.1
2019-03-12T20:11:35.044Z,7
2019-03-12T20:21:34.259Z,7
2019-03-12T20:31:33.475Z,6.9
2019-03-12T20:41:32.692Z,6.8
2019-03-12T20:51:31.910Z,6.9
2019-03-12T21:01:31.148Z,6.9
2019-03-12T21:14:19.538Z,6.9
2019-03-12T21:24:18.754Z,6.9
2019-03-12T21:34:17.966Z,6.9
2019-03-12T21:44:17.325Z,7
2019-03-12T21:54:16.392Z,7.1
2019-03-12T22:04:15.615Z,7.1
2019-03-12T22:14:14.871Z,7
2019-03-12T22:24:14.165Z,7
2019-03-12T22:34:13.460Z,6.8
2019-03-12T22:44:12.753Z,6.6
2019-03-12T22:54:12.045Z,6.5
2019-03-12T23:04:11.338Z,6.4
2019-03-12T23:14:10.551Z,6.5
2019-03-12T23:24:09.761Z,6.5
2019-03-12T23:34:08.973Z,6.6
2019-03-12T23:44:08.187Z,6.8
2019-03-12T23:54:07.398Z,6.9
